Time;durP1;ratioP1;P1;durP2;ratioP2;P2;SDS_P1;SDS_P2;PMS_P1;PMS_P2;Temp;Humidity;BMP_temperature;BMP_pressure;BME280_temperature;BME280_humidity;BME280_pressure;Samples;Min_cycle;Max_cycle;Signal;HPM_P1;HPM_P2
2021/08/21 00:01:09;;;;;;;0.70;0.70;;;;;;;19.35;63.37;101928.28;5115387;28;20066;-87
2021/08/21 00:03:37;;;;;;;0.10;0.10;;;;;;;19.31;63.70;101929.31;5115411;28;20028;-87
2021/08/21 00:06:03;;;;;;;1.17;0.30;;;;;;;19.35;63.22;101936.34;5115312;28;20036;-87
2021/08/21 00:08:30;;;;;;;0.10;0.10;;;;;;;19.33;63.29;101927.44;5114918;28;20501;-87
2021/08/21 00:10:57;;;;;;;0.00;0.00;;;;;;;19.32;63.24;101925.69;5114915;28;20057;-87
2021/08/21 00:13:23;;;;;;;0.20;0.20;;;;;;;19.29;63.37;101925.84;5114908;28;20023;-87
2021/08/21 00:15:51;;;;;;;0.20;0.20;;;;;;;19.29;63.35;101922.25;5115247;28;20027;-87
2021/08/21 00:18:17;;;;;;;0.20;0.20;;;;;;;19.27;63.43;101918.78;5114803;28;20489;-87
2021/08/21 00:20:44;;;;;;;0.10;0.10;;;;;;;19.26;63.46;101920.56;5114722;28;20422;-87
2021/08/21 00:23:10;;;;;;;0.08;0.08;;;;;;;19.24;63.51;101920.63;5114734;28;20484;-87
2021/08/21 00:25:37;;;;;;;0.10;0.10;;;;;;;19.24;63.31;101917.09;5114664;28;20038;-86
2021/08/21 00:28:03;;;;;;;1.10;0.70;;;;;;;19.22;63.46;101927.88;5114923;28;20072;-87
2021/08/21 00:30:30;;;;;;;0.10;0.10;;;;;;;19.20;63.47;101920.81;5114467;28;20118;-87
2021/08/21 00:32:56;;;;;;;0.10;0.10;;;;;;;19.18;63.46;101914.63;5114646;28;20028;-87
2021/08/21 00:35:23;;;;;;;0.10;0.10;;;;;;;19.19;63.52;101919.03;5114648;28;20027;-87
2021/08/21 00:37:51;;;;;;;1.13;1.13;;;;;;;19.19;63.56;101916.38;5114408;28;20470;-87
2021/08/21 00:40:17;;;;;;;0.10;0.10;;;;;;;19.20;63.62;101915.44;5114576;28;20545;-87
2021/08/21 00:42:44;;;;;;;0.10;0.10;;;;;;;19.21;63.80;101914.50;5114568;28;20110;-87
2021/08/21 00:45:11;;;;;;;0.10;0.10;;;;;;;19.22;63.33;101918.94;5114371;28;20023;-87
2021/08/21 00:47:37;;;;;;;0.10;0.10;;;;;;;19.24;63.45;101914.41;5114614;28;20027;-87
2021/08/21 00:50:04;;;;;;;0.10;0.10;;;;;;;19.28;63.62;101916.03;5114324;28;20119;-88
2021/08/21 00:52:34;;;;;;;0.15;0.15;;;;;;;19.35;63.66;101913.94;5114723;28;20035;-88
2021/08/21 00:55:00;;;;;;;0.10;0.10;;;;;;;19.39;63.56;101904.84;5114408;28;20465;-87
2021/08/21 00:57:28;;;;;;;0.20;0.20;;;;;;;19.45;63.67;101903.72;5114291;28;20038;-87
2021/08/21 00:59:55;;;;;;;0.20;0.20;;;;;;;19.48;63.57;101904.47;5114371;28;20463;-87
2021/08/21 01:02:22;;;;;;;0.50;0.50;;;;;;;19.50;63.59;101909.78;5114186;28;20058;-87
2021/08/21 01:04:52;;;;;;;0.10;0.10;;;;;;;19.51;63.76;101914.22;5114550;28;20026;-87
2021/08/21 01:07:22;;;;;;;0.38;0.38;;;;;;;19.52;63.70;101905.22;5114340;28;20027;-87
2021/08/21 01:09:49;;;;;;;0.10;0.10;;;;;;;19.51;63.73;101909.69;5114179;28;20107;-87
2021/08/21 01:12:18;;;;;;;0.10;0.10;;;;;;;19.50;64.00;101907.97;5114283;28;20023;-87
2021/08/21 01:14:46;;;;;;;0.10;0.10;;;;;;;19.47;63.56;101907.22;5114736;28;20091;-87
2021/08/21 01:17:14;;;;;;;0.08;0.08;;;;;;;19.44;63.73;101908.22;5114237;28;20131;-87
2021/08/21 01:19:43;;;;;;;0.00;0.00;;;;;;;19.42;63.61;101914.59;5114259;28;20030;-87
2021/08/21 01:22:13;;;;;;;0.10;0.10;;;;;;;19.38;63.60;101913.84;5114014;28;20054;-87
2021/08/21 01:24:41;;;;;;;0.10;0.10;;;;;;;19.33;63.73;101908.66;5114256;28;20028;-87
2021/08/21 01:27:14;;;;;;;0.10;0.10;;;;;;;19.27;63.73;101905.34;5113885;28;20031;-86
2021/08/21 01:29:40;;;;;;;0.10;0.10;;;;;;;19.23;63.82;101909.97;5113871;28;20035;-87
2021/08/21 01:32:07;;;;;;;0.10;0.10;;;;;;;19.17;63.81;101899.44;5113643;28;20093;-87
2021/08/21 01:34:33;;;;;;;0.28;0.22;;;;;;;19.13;63.72;101904.06;5114333;28;20027;-87
2021/08/21 01:37:00;;;;;;;0.10;0.10;;;;;;;19.08;63.89;101904.25;5114231;28;20050;-87
2021/08/21 01:39:26;;;;;;;0.10;0.10;;;;;;;19.05;63.91;101904.38;5113863;28;20405;-87
2021/08/21 01:41:53;;;;;;;0.43;0.43;;;;;;;19.04;63.79;101905.31;5113601;28;20023;-87
2021/08/21 01:44:19;;;;;;;0.10;0.10;;;;;;;19.01;64.08;101905.41;5113746;28;20032;-87
2021/08/21 01:46:48;;;;;;;0.10;0.10;;;;;;;18.98;63.83;101899.28;5113510;28;20035;-87
2021/08/21 01:49:16;;;;;;;0.10;0.10;;;;;;;18.95;63.94;101899.41;5113970;28;20028;-87
2021/08/21 01:51:44;;;;;;;0.10;0.10;;;;;;;18.94;63.74;101903.03;5113612;28;20055;-87
2021/08/21 01:54:12;;;;;;;0.10;0.10;;;;;;;18.91;63.63;101896.81;5114023;28;20023;-87
2021/08/21 01:56:44;;;;;;;0.20;0.20;;;;;;;18.92;64.01;101905.78;5113533;28;20028;-87
2021/08/21 01:59:17;;;;;;;0.10;0.10;;;;;;;18.88;63.88;101901.44;5117128;28;20351;-87
2021/08/21 02:01:44;;;;;;;0.30;0.30;;;;;;;18.85;63.72;101902.38;5117201;28;20034;-87
2021/08/21 02:04:10;;;;;;;0.20;0.20;;;;;;;18.84;63.82;101907.81;5117554;28;20541;-87
2021/08/21 02:06:37;;;;;;;0.10;0.10;;;;;;;18.82;64.01;101910.56;5117115;28;20035;-87
2021/08/21 02:09:03;;;;;;;0.20;0.20;;;;;;;18.81;64.20;101902.59;5116884;28;20454;-87
2021/08/21 02:11:29;;;;;;;0.90;0.90;;;;;;;18.81;64.15;101914.19;5116825;28;20092;-87
2021/08/21 02:13:56;;;;;;;0.35;0.35;;;;;;;18.83;64.15;101908.75;5117196;28;20028;-87
2021/08/21 02:16:23;;;;;;;0.10;0.10;;;;;;;18.83;64.25;101903.38;5117005;28;20530;-87
2021/08/21 02:18:49;;;;;;;0.00;0.00;;;;;;;18.85;64.13;101898.84;5117212;28;20160;-87
2021/08/21 02:21:19;;;;;;;0.10;0.10;;;;;;;18.84;64.35;101903.34;5116948;28;20106;-87
2021/08/21 02:23:46;;;;;;;0.38;0.38;;;;;;;18.84;64.23;101907.81;5116977;28;20466;-87
2021/08/21 02:26:13;;;;;;;0.10;0.10;;;;;;;18.84;64.03;101903.34;5116760;28;20035;-87
2021/08/21 02:28:39;;;;;;;0.20;0.20;;;;;;;18.83;64.08;101901.59;5117128;28;20027;-87
2021/08/21 02:31:05;;;;;;;0.05;0.05;;;;;;;18.82;64.22;101905.22;5117000;28;20450;-87
2021/08/21 02:33:32;;;;;;;0.10;0.10;;;;;;;18.80;64.33;101909.75;5117192;28;20028;-87
2021/08/21 02:35:59;;;;;;;0.10;0.10;;;;;;;18.82;63.88;101912.41;5116589;28;20027;-87
2021/08/21 02:38:26;;;;;;;0.10;0.10;;;;;;;18.79;63.68;101915.19;5116654;28;20031;-87
2021/08/21 02:40:53;;;;;;;0.15;0.15;;;;;;;18.76;63.88;101916.19;5116873;28;20034;-87
2021/08/21 02:43:20;;;;;;;0.10;0.10;;;;;;;18.75;64.05;101914.41;5117325;28;20055;-87
2021/08/21 02:45:47;;;;;;;0.15;0.15;;;;;;;18.72;64.08;101904.66;5116185;28;20410;-87
2021/08/21 02:48:14;;;;;;;0.25;0.25;;;;;;;18.83;63.68;101904.28;5116788;28;20035;-87
2021/08/21 02:50:40;;;;;;;0.10;0.10;;;;;;;18.85;63.89;101898.84;5116547;28;20504;-87
2021/08/21 02:53:07;;;;;;;0.35;0.35;;;;;;;18.85;64.06;101888.97;5115945;28;20401;-87
2021/08/21 02:55:33;;;;;;;0.10;0.10;;;;;;;18.74;64.34;101893.88;5116314;28;20119;-87
2021/08/21 02:57:59;;;;;;;0.30;0.30;;;;;;;18.71;64.55;101902.06;5116352;28;20108;-87
2021/08/21 03:00:26;;;;;;;0.10;0.10;;;;;;;18.70;64.51;101893.09;5116248;28;20061;-87
2021/08/21 03:02:52;;;;;;;0.20;0.20;;;;;;;18.70;64.60;101894.94;5115763;28;20048;-87
2021/08/21 03:05:18;;;;;;;0.10;0.10;;;;;;;18.71;64.65;101891.31;5116860;28;20078;-87
2021/08/21 03:07:45;;;;;;;0.10;0.10;;;;;;;18.75;64.79;101893.84;5116248;28;20055;-87
2021/08/21 03:10:11;;;;;;;0.10;0.10;;;;;;;18.78;65.07;101891.94;5116433;28;20036;-87
2021/08/21 03:12:37;;;;;;;0.20;0.20;;;;;;;18.77;65.06;101893.78;5115815;28;20081;-87
2021/08/21 03:15:05;;;;;;;0.10;0.10;;;;;;;18.83;64.83;101887.28;5115980;28;20024;-86
2021/08/21 03:17:31;;;;;;;0.10;0.10;;;;;;;18.85;64.89;101882.72;5116012;28;20526;-87
2021/08/21 03:19:57;;;;;;;0.10;0.10;;;;;;;18.89;64.84;101889.72;5115755;28;20125;-87
2021/08/21 03:22:23;;;;;;;0.10;0.10;;;;;;;18.94;64.90;101889.59;5116007;28;20122;-87
2021/08/21 03:24:50;;;;;;;0.10;0.10;;;;;;;18.97;64.62;101889.50;5116183;28;20089;-87
2021/08/21 03:27:16;;;;;;;0.10;0.10;;;;;;;19.00;64.62;101890.22;5116139;28;20373;-87
2021/08/21 03:29:42;;;;;;;0.10;0.10;;;;;;;19.02;64.66;101890.19;5116062;28;20053;-87
2021/08/21 03:32:10;;;;;;;0.30;0.30;;;;;;;19.02;64.65;101885.66;5116483;28;20109;-87
2021/08/21 03:34:38;;;;;;;0.10;0.10;;;;;;;19.04;64.78;101886.50;5116966;28;20416;-87
2021/08/21 03:37:05;;;;;;;0.13;0.13;;;;;;;19.05;64.58;101882.88;5116769;28;20386;-87
2021/08/21 03:39:31;;;;;;;0.10;0.10;;;;;;;19.05;64.61;101880.19;5115706;28;20023;-87
2021/08/21 03:41:57;;;;;;;0.10;0.10;;;;;;;19.04;64.50;101878.44;5115693;28;20035;-87
2021/08/21 03:44:24;;;;;;;0.10;0.10;;;;;;;19.02;64.56;101874.06;5115663;28;20387;-87
2021/08/21 03:46:50;;;;;;;0.10;0.10;;;;;;;19.00;64.47;101879.47;5115182;28;20034;-87
2021/08/21 03:49:16;;;;;;;0.10;0.10;;;;;;;18.96;64.63;101871.63;5115270;28;20427;-87
2021/08/21 03:51:43;;;;;;;0.10;0.10;;;;;;;18.95;64.78;101873.41;5115249;28;20042;-87
2021/08/21 03:54:09;;;;;;;0.10;0.10;;;;;;;18.90;64.86;101875.38;5115810;28;20020;-87
2021/08/21 03:56:36;;;;;;;0.20;0.20;;;;;;;18.95;64.78;101876.09;5115351;28;20115;-87
2021/08/21 03:59:03;;;;;;;0.05;0.05;;;;;;;18.93;65.22;101875.31;5115216;28;20053;-87
2021/08/21 04:01:29;;;;;;;0.10;0.10;;;;;;;18.97;65.05;101876.91;5115347;28;20038;-87
2021/08/21 04:03:55;;;;;;;0.20;0.20;;;;;;;19.01;65.05;101873.19;5114728;28;20026;-87
2021/08/21 04:06:22;;;;;;;0.10;0.10;;;;;;;19.04;65.32;101870.38;5114822;28;20031;-87
2021/08/21 04:08:48;;;;;;;0.20;0.20;;;;;;;19.08;65.28;101871.13;5115148;28;20058;-87
2021/08/21 04:11:14;;;;;;;0.47;0.47;;;;;;;19.12;65.24;101869.22;5115156;28;20105;-87
2021/08/21 04:13:41;;;;;;;0.10;0.10;;;;;;;19.16;65.41;101870.84;5115254;28;20497;-87
2021/08/21 04:16:07;;;;;;;0.10;0.10;;;;;;;19.19;65.33;101882.34;5114816;28;20043;-86
2021/08/21 04:18:33;;;;;;;0.20;0.20;;;;;;;19.29;65.00;101888.22;5114948;28;20036;-87
2021/08/21 04:20:59;;;;;;;0.10;0.10;;;;;;;19.30;65.67;101879.22;5114215;28;20100;-87
2021/08/21 04:23:25;;;;;;;0.10;0.10;;;;;;;19.31;65.16;101878.25;5115065;28;20489;-87
2021/08/21 04:25:52;;;;;;;0.52;0.52;;;;;;;19.30;65.34;101875.66;5114544;28;20050;-87
2021/08/21 04:28:18;;;;;;;0.20;0.20;;;;;;;19.30;65.55;101873.84;5114988;28;20035;-87
2021/08/21 04:30:44;;;;;;;0.10;0.10;;;;;;;19.33;65.34;101873.72;5114727;28;20047;-87
2021/08/21 04:33:10;;;;;;;0.40;0.40;;;;;;;19.35;65.62;101876.34;5114761;28;20161;-87
2021/08/21 04:35:36;;;;;;;0.80;0.80;;;;;;;19.37;65.54;101869.94;5128275;22;20069;-91
2021/08/21 04:38:03;;;;;;;1.80;0.50;;;;;;;19.34;66.53;101870.09;5114285;28;20028;-91
2021/08/21 04:40:29;;;;;;;0.10;0.10;;;;;;;19.38;65.79;101871.72;5114160;28;20031;-91
2021/08/21 04:42:57;;;;;;;0.30;0.30;;;;;;;19.40;66.08;101874.31;5122660;28;20500;-90
2021/08/21 04:45:25;;;;;;;1.98;0.90;;;;;;;19.44;66.07;101883.13;5121843;28;20028;-90
2021/08/21 04:47:52;;;;;;;0.03;0.03;;;;;;;19.49;65.95;101878.44;5115221;28;20035;-91
2021/08/21 04:50:18;;;;;;;0.65;0.65;;;;;;;19.53;65.89;101880.09;5113942;28;20118;-91
2021/08/21 04:52:45;;;;;;;0.30;0.30;;;;;;;19.56;65.85;101879.94;5114061;28;20036;-90
2021/08/21 04:55:11;;;;;;;0.43;0.43;;;;;;;19.61;65.54;101887.84;5113709;28;20076;-90
2021/08/21 04:57:37;;;;;;;1.05;0.98;;;;;;;19.64;65.57;101879.63;5113653;28;20139;-91
2021/08/21 05:00:05;;;;;;;0.20;0.20;;;;;;;19.66;65.25;101885.81;5113971;28;20077;-90
2021/08/21 05:02:31;;;;;;;0.13;0.13;;;;;;;19.68;65.31;101887.50;5113818;28;20423;-90
2021/08/21 05:04:57;;;;;;;0.22;0.22;;;;;;;19.67;65.57;101893.81;5113745;28;20062;-90
2021/08/21 05:07:23;;;;;;;0.10;0.10;;;;;;;19.68;65.40;101890.19;5113974;28;20035;-90
2021/08/21 05:09:51;;;;;;;0.10;0.10;;;;;;;19.69;65.31;101889.25;5114132;28;20028;-90
2021/08/21 05:12:17;;;;;;;2.72;0.63;;;;;;;19.72;65.55;101890.94;5114029;28;20359;-91
2021/08/21 05:14:43;;;;;;;0.28;0.28;;;;;;;19.79;65.30;101896.94;5114780;28;20065;-91
2021/08/21 05:17:09;;;;;;;0.82;0.82;;;;;;;19.80;65.27;101893.31;5114720;28;20035;-90
2021/08/21 05:19:40;;;;;;;0.10;0.10;;;;;;;19.80;65.27;101896.88;5114323;28;20374;-90
2021/08/21 05:24:53;;;;;;;0.10;0.10;;;;;;;19.78;65.61;101896.06;5113517;28;20044;-90
2021/08/21 05:27:22;;;;;;;0.10;0.10;;;;;;;19.81;65.64;101895.06;5113706;28;20028;-91
2021/08/21 05:29:48;;;;;;;2.28;1.23;;;;;;;19.82;65.71;101891.44;5114255;28;20051;-91
2021/08/21 05:32:15;;;;;;;0.20;0.20;;;;;;;19.83;65.54;101896.78;5114425;28;20050;-90
2021/08/21 05:34:41;;;;;;;0.20;0.20;;;;;;;19.86;65.39;101895.78;5117981;28;20077;-91
2021/08/21 05:37:08;;;;;;;0.57;0.57;;;;;;;19.88;65.44;101892.06;5117570;28;20080;-91
2021/08/21 05:39:34;;;;;;;0.22;0.22;;;;;;;19.90;65.55;101892.03;5117597;28;20127;-91
2021/08/21 05:42:01;;;;;;;0.35;0.35;;;;;;;19.93;65.55;101882.97;5117405;28;20028;-90
2021/08/21 05:44:27;;;;;;;0.10;0.10;;;;;;;19.94;65.77;101888.25;5117328;28;20030;-90
2021/08/21 05:46:53;;;;;;;0.70;0.70;;;;;;;19.96;65.64;101894.47;5117396;28;20031;-91
2021/08/21 05:49:19;;;;;;;0.08;0.08;;;;;;;19.97;65.36;101893.50;5116757;28;20031;-91
2021/08/21 05:51:45;;;;;;;0.10;0.10;;;;;;;19.98;65.44;101897.06;5116839;28;20028;-90
2021/08/21 05:54:12;;;;;;;0.20;0.20;;;;;;;20.02;65.65;101896.84;5117586;28;20028;-91
2021/08/21 05:56:38;;;;;;;0.32;0.32;;;;;;;20.06;65.54;101899.44;5117214;28;20027;-91
2021/08/21 05:59:05;;;;;;;0.30;0.30;;;;;;;20.08;65.45;101898.41;5117763;28;20050;-90
2021/08/21 06:01:31;;;;;;;0.10;0.10;;;;;;;20.10;65.44;101890.28;5117738;28;20496;-91
2021/08/21 06:04:00;;;;;;;0.40;0.40;;;;;;;20.14;65.36;101897.28;5117110;28;20389;-90
2021/08/21 06:06:27;;;;;;;2.30;0.88;;;;;;;20.19;65.36;101903.34;5117848;28;20023;-90
2021/08/21 06:08:53;;;;;;;0.57;0.57;;;;;;;20.22;65.17;101903.19;5117128;28;20129;-90
2021/08/21 06:11:19;;;;;;;0.20;0.20;;;;;;;20.26;64.83;101898.56;5099394;28;20055;-91
2021/08/21 06:13:45;;;;;;;0.95;0.95;;;;;;;20.30;65.39;101892.97;5117110;28;20032;-90
2021/08/21 06:16:11;;;;;;;0.30;0.30;;;;;;;20.35;65.22;101890.94;5117036;28;20111;-90
2021/08/21 06:18:40;;;;;;;0.35;0.35;;;;;;;20.48;65.54;101896.66;5116875;28;20081;-90
2021/08/21 06:21:06;;;;;;;0.90;0.90;;;;;;;20.55;66.01;101902.66;5117168;28;20081;-91
2021/08/21 06:23:32;;;;;;;0.65;0.65;;;;;;;20.70;65.71;101903.78;5117258;28;20024;-90
2021/08/21 06:25:59;;;;;;;0.30;0.30;;;;;;;20.78;65.21;101904.31;5116805;28;20501;-90
2021/08/21 06:28:25;;;;;;;0.22;0.22;;;;;;;20.84;64.99;101904.03;5116996;28;20036;-91
2021/08/21 06:30:51;;;;;;;0.20;0.20;;;;;;;20.90;64.91;101899.28;5116604;28;20023;-90
2021/08/21 06:33:17;;;;;;;0.10;0.10;;;;;;;20.93;65.03;101896.47;5116777;28;20019;-90
2021/08/21 06:35:43;;;;;;;0.20;0.20;;;;;;;21.01;65.05;101908.63;5116537;28;20035;-91
2021/08/21 06:38:11;;;;;;;0.60;0.60;;;;;;;21.13;65.31;101909.00;5116799;28;20380;-91
2021/08/21 06:40:37;;;;;;;1.80;1.17;;;;;;;21.25;65.24;101903.00;5116721;28;20031;-91
2021/08/21 06:43:03;;;;;;;0.77;0.77;;;;;;;21.27;65.16;101906.53;5116271;28;20434;-91
2021/08/21 06:45:29;;;;;;;0.55;0.55;;;;;;;21.39;64.99;101902.34;5116848;28;20028;-90
2021/08/21 06:47:56;;;;;;;0.13;0.13;;;;;;;21.56;64.61;101900.66;5117127;28;20107;-90
2021/08/21 06:50:23;;;;;;;0.17;0.17;;;;;;;21.69;64.45;101903.63;5116927;28;20463;-91
2021/08/21 06:52:51;;;;;;;1.05;1.05;;;;;;;21.78;64.26;101901.34;5116478;28;20066;-90
2021/08/21 06:55:18;;;;;;;0.80;0.30;;;;;;;21.89;64.09;101900.78;5116386;28;20088;-90
2021/08/21 06:57:44;;;;;;;0.40;0.40;;;;;;;21.95;64.03;101897.78;5116937;28;20110;-90
2021/08/21 07:00:11;;;;;;;0.17;0.17;;;;;;;22.05;63.91;101895.47;5116270;28;20364;-90
2021/08/21 07:02:37;;;;;;;0.30;0.30;;;;;;;22.10;63.73;101896.09;5116479;28;20060;-90
2021/08/21 07:05:04;;;;;;;0.10;0.10;;;;;;;22.16;63.68;101897.63;5116997;28;20055;-90
2021/08/21 07:07:30;;;;;;;0.10;0.10;;;;;;;22.14;63.51;101892.31;5116843;28;20039;-91
2021/08/21 07:09:58;;;;;;;1.08;1.08;;;;;;;22.17;63.46;101893.09;5116960;28;20027;-91
2021/08/21 07:12:24;;;;;;;0.30;0.30;;;;;;;22.15;63.23;101898.56;5098182;28;20027;-91
2021/08/21 07:14:50;;;;;;;0.65;0.65;;;;;;;22.16;63.16;101894.94;5116330;28;20054;-91
2021/08/21 07:17:18;;;;;;;0.15;0.15;;;;;;;22.18;63.14;101887.63;5116055;28;20024;-89
2021/08/21 07:19:47;;;;;;;0.10;0.10;;;;;;;22.18;63.35;101893.03;5116212;28;20024;-91
2021/08/21 07:22:16;;;;;;;0.32;0.32;;;;;;;22.15;63.51;101890.47;5115966;28;20068;-90
2021/08/21 07:24:44;;;;;;;6.38;1.15;;;;;;;22.22;63.40;101881.13;5116054;28;20050;-91
2021/08/21 07:27:11;;;;;;;0.15;0.15;;;;;;;22.34;63.42;101878.72;5115849;28;20073;-91
2021/08/21 07:29:37;;;;;;;0.15;0.15;;;;;;;22.44;63.28;101878.19;5116400;28;20023;-90
2021/08/21 07:32:03;;;;;;;0.10;0.10;;;;;;;22.56;63.15;101882.03;5115857;28;20173;-90
2021/08/21 07:34:30;;;;;;;0.50;0.50;;;;;;;22.67;63.00;101880.56;5115738;28;20037;-90
2021/08/21 07:39:55;;;;;;;0.10;0.10;;;;;;;22.81;62.37;101879.81;5077931;28;20045;-84
2021/08/21 07:43:17;;;;;;;0.25;0.25;;;;;;;22.93;62.04;101877.31;5587622;22;20029;-83
2021/08/21 07:46:39;;;;;;;0.40;0.40;;;;;;;22.97;61.87;101877.13;5107263;22;20029;-82
2021/08/21 08:01:06;;;;;;;0.15;0.15;;;;;;;23.22;60.98;101879.34;4764203;22;20044;-94
2021/08/21 08:04:53;;;;;;;0.10;0.10;;;;;;;23.33;60.69;101878.72;5222788;22;20033;-89
2021/08/21 08:07:31;;;;;;;0.20;0.20;;;;;;;23.33;60.03;101882.31;5404063;22;20132;-91
2021/08/21 08:10:49;;;;;;;0.10;0.10;;;;;;;23.30;60.22;101878.91;5078376;28;20049;-83
2021/08/21 08:14:20;;;;;;;0.32;0.15;;;;;;;23.49;60.02;101876.88;5078109;28;20047;-92
2021/08/21 08:17:34;;;;;;;0.20;0.20;;;;;;;23.61;59.84;101879.84;5453053;22;20029;-88
2021/08/21 08:24:21;;;;;;;0.20;0.20;;;;;;;23.72;59.03;101882.78;5115816;22;20040;-83
2021/08/21 08:32:58;;;;;;;0.30;0.30;;;;;;;24.00;58.66;101886.56;5323751;22;20065;-83
2021/08/21 08:35:51;;;;;;;0.20;0.20;;;;;;;23.96;57.54;101880.44;5498431;22;20015;-89
2021/08/21 08:38:42;;;;;;;0.20;0.20;;;;;;;24.14;58.51;101878.47;5055882;28;20041;-96
2021/08/21 08:41:11;;;;;;;0.10;0.10;;;;;;;24.22;58.79;101873.47;5040247;28;20044;-96
2021/08/21 08:44:01;;;;;;;0.32;0.30;;;;;;;24.30;57.42;101873.00;5056038;28;20020;-96
2021/08/21 08:46:55;;;;;;;0.20;0.20;;;;;;;24.43;57.96;101877.66;5048193;28;20028;-96
2021/08/21 08:49:39;;;;;;;0.50;0.50;;;;;;;24.61;57.26;101867.47;5056166;28;20064;-95
2021/08/21 08:52:09;;;;;;;0.20;0.20;;;;;;;24.71;58.02;101883.09;5054100;28;20061;-96
2021/08/21 08:54:46;;;;;;;0.22;0.22;;;;;;;24.75;56.42;101877.47;5049549;28;20034;-93
2021/08/21 08:57:38;;;;;;;0.10;0.10;;;;;;;24.99;57.06;101866.91;5045876;28;20037;-95
2021/08/21 09:00:11;;;;;;;0.82;0.82;;;;;;;25.19;57.18;101877.28;5047925;28;20034;-96
2021/08/21 09:02:40;;;;;;;0.20;0.20;;;;;;;25.24;56.47;101870.72;5042757;28;20025;-96
2021/08/21 09:05:16;;;;;;;0.10;0.10;;;;;;;25.37;54.50;101878.94;5056256;28;20041;-96
2021/08/21 09:10:45;;;;;;;0.93;0.93;;;;;;;25.64;55.71;101882.50;5077007;28;20412;-96
2021/08/21 09:13:15;;;;;;;0.50;0.50;;;;;;;25.70;55.16;101886.66;5080350;28;20039;-96
2021/08/21 09:15:48;;;;;;;0.30;0.30;;;;;;;25.76;54.02;101891.66;5075572;28;20032;-96
2021/08/21 09:21:21;;;;;;;0.10;0.10;;;;;;;25.92;53.56;101890.59;5102217;27;20386;-94
2021/08/21 09:23:53;;;;;;;0.10;0.10;;;;;;;25.94;54.47;101883.22;5081060;28;20040;-92
2021/08/21 09:26:44;;;;;;;1.17;1.17;;;;;;;26.14;52.61;101887.31;5060220;23;20021;-94
2021/08/21 09:29:56;;;;;;;0.17;0.17;;;;;;;26.43;53.12;101871.69;5033375;28;20042;-96
2021/08/21 09:32:52;;;;;;;0.10;0.10;;;;;;;26.53;52.34;101871.91;5088845;23;20053;-96
2021/08/21 09:38:42;;;;;;;0.10;0.10;;;;;;;26.83;50.80;101870.69;5081264;23;20046;-96
2021/08/21 09:41:38;;;;;;;0.32;0.32;;;;;;;26.72;49.47;101863.28;5261181;23;20042;-94
2021/08/21 09:44:07;;;;;;;0.52;0.52;;;;;;;26.72;50.03;101857.84;5038807;28;20109;-96
2021/08/21 09:46:35;;;;;;;0.30;0.30;;;;;;;26.59;49.21;101859.69;5047386;28;20034;-96
2021/08/21 09:49:08;;;;;;;0.10;0.10;;;;;;;26.61;48.88;101860.47;5047264;28;20034;-96
2021/08/21 09:51:45;;;;;;;0.10;0.10;;;;;;;26.54;50.44;101859.16;5026166;28;20033;-95
2021/08/21 09:54:16;;;;;;;0.10;0.10;;;;;;;26.50;51.22;101857.66;5042128;28;20093;-96
2021/08/21 09:56:55;;;;;;;0.10;0.10;;;;;;;26.55;50.25;101844.59;5052646;28;20069;-96
2021/08/21 09:59:45;;;;;;;0.20;0.20;;;;;;;26.54;51.10;101848.28;5050493;28;20057;-96
2021/08/21 10:02:16;;;;;;;0.13;0.13;;;;;;;26.60;50.90;101843.28;5052658;28;20038;-96
2021/08/21 10:04:44;;;;;;;0.70;0.70;;;;;;;26.57;50.96;101848.09;5048118;28;20030;-96
2021/08/21 10:07:15;;;;;;;0.20;0.20;;;;;;;26.70;50.70;101848.91;5042563;28;20060;-97
2021/08/21 10:09:43;;;;;;;0.30;0.30;;;;;;;26.72;50.33;101838.81;5043919;28;20045;-96
2021/08/21 10:12:11;;;;;;;0.38;0.38;;;;;;;26.81;50.47;101848.16;5044281;28;20026;-93
2021/08/21 10:14:40;;;;;;;0.10;0.10;;;;;;;26.92;49.92;101850.09;5041972;28;20033;-96
2021/08/21 10:17:08;;;;;;;0.35;0.35;;;;;;;27.13;49.58;101848.50;5038655;28;20029;-96
2021/08/21 10:19:38;;;;;;;0.10;0.10;;;;;;;27.20;49.76;101850.75;5039084;28;20030;-91
2021/08/21 10:22:05;;;;;;;0.40;0.40;;;;;;;27.37;48.97;101853.09;5052358;28;20040;-91
2021/08/21 10:24:37;;;;;;;0.10;0.10;;;;;;;27.32;48.02;101849.84;5046382;28;20030;-91
2021/08/21 10:30:49;;;;;;;0.13;0.13;;;;;;;27.50;45.85;101854.91;5079235;28;20404;-96
2021/08/21 10:33:16;;;;;;;0.10;0.10;;;;;;;27.56;47.17;101857.16;5078175;28;20068;-96
2021/08/21 10:35:48;;;;;;;0.65;0.65;;;;;;;27.64;46.06;101852.00;5092630;22;20043;-89
2021/08/21 10:38:36;;;;;;;0.10;0.10;;;;;;;27.80;46.92;101845.38;5071231;28;20036;-89
2021/08/21 10:44:04;;;;;;;0.30;0.30;;;;;;;27.82;46.56;101846.13;5152429;27;20389;-89
2021/08/21 10:49:36;;;;;;;0.10;0.10;;;;;;;27.89;45.58;101836.50;5111424;27;20387;-88
2021/08/21 10:52:08;;;;;;;1.42;0.47;;;;;;;27.90;47.10;101838.19;5110994;28;20048;-89
2021/08/21 10:57:28;;;;;;;0.10;0.10;;;;;;;28.07;47.26;101831.47;5073631;27;20437;-90
2021/08/21 10:59:55;;;;;;;0.10;0.10;;;;;;;28.13;46.84;101827.41;5070818;28;20083;-89
2021/08/21 11:09:04;;;;;;;0.38;0.38;;;;;;;28.28;46.77;101828.03;5090399;27;20175;-89
2021/08/21 11:11:47;;;;;;;0.38;0.38;;;;;;;28.43;46.56;101828.66;5070699;28;20068;-88
2021/08/21 11:14:29;;;;;;;0.38;0.38;;;;;;;28.41;45.63;101826.03;5070477;28;20056;-89
2021/08/21 11:17:00;;;;;;;0.10;0.10;;;;;;;28.48;45.66;101815.53;5055188;28;20033;-89
2021/08/21 11:19:47;;;;;;;0.30;0.30;;;;;;;28.60;45.11;101819.09;5050507;28;20419;-89
2021/08/21 11:22:26;;;;;;;0.13;0.13;;;;;;;28.76;44.38;101818.75;5050298;28;20040;-90
2021/08/21 11:27:38;;;;;;;0.33;0.33;;;;;;;28.89;44.95;101808.56;5043761;27;1327198;-88
2021/08/21 11:43:33;;;;;;;0.57;0.57;;;;;;;28.82;44.25;101801.88;5110939;27;20757;-89
2021/08/21 11:46:04;;;;;;;0.40;0.40;;;;;;;28.80;44.86;101801.13;5103956;28;20399;-90
2021/08/21 11:48:33;;;;;;;0.10;0.10;;;;;;;28.80;44.77;101803.84;5092710;28;20460;-90
2021/08/21 11:51:07;;;;;;;2.17;0.50;;;;;;;28.87;43.98;101805.09;5094003;28;20056;-88
2021/08/21 11:53:40;;;;;;;0.20;0.20;;;;;;;28.77;42.97;101793.22;5092996;28;20029;-89
2021/08/21 11:56:06;;;;;;;1.95;0.85;;;;;;;28.96;44.86;101798.00;5091445;28;20017;-89
2021/08/21 11:58:36;;;;;;;0.10;0.10;;;;;;;29.02;44.59;101801.09;5090138;28;20024;-90
2021/08/21 12:01:12;;;;;;;0.30;0.30;;;;;;;29.03;44.44;101789.16;5090261;28;20025;-90
2021/08/21 12:17:42;;;;;;;0.28;0.25;;;;;;;29.74;44.32;101789.63;5058460;28;20770;-96
2021/08/21 12:20:09;;;;;;;0.10;0.10;;;;;;;29.74;41.89;101792.38;5052880;28;20501;-96
2021/08/21 12:22:35;;;;;;;0.35;0.35;;;;;;;29.81;44.02;101793.56;5060877;28;20496;-94
2021/08/21 12:25:01;;;;;;;0.08;0.08;;;;;;;29.73;42.96;101796.94;5055497;28;20116;-96
2021/08/21 12:27:29;;;;;;;0.98;0.90;;;;;;;29.66;44.01;101788.44;5054555;28;20041;-96
2021/08/21 12:30:17;;;;;;;0.85;0.85;;;;;;;29.82;43.29;101787.97;5056731;28;20420;-96
2021/08/21 12:32:44;;;;;;;0.43;0.30;;;;;;;29.71;42.03;101793.50;5057341;28;20033;-95
2021/08/21 12:35:17;;;;;;;0.10;0.10;;;;;;;29.90;43.82;101798.25;5062644;28;20037;-94
2021/08/21 12:38:01;;;;;;;1.10;0.55;;;;;;;30.06;43.10;101783.22;5068918;28;20014;-96
2021/08/21 12:40:30;;;;;;;0.73;0.73;;;;;;;30.25;43.26;101783.31;5065703;28;20092;-96
2021/08/21 12:43:07;;;;;;;0.80;0.30;;;;;;;30.33;41.23;101775.31;5069308;28;20057;-96
2021/08/21 12:45:45;;;;;;;0.10;0.10;;;;;;;30.48;41.16;101777.63;5069227;28;20029;-96
2021/08/21 12:48:11;;;;;;;0.30;0.30;;;;;;;30.48;41.52;101772.16;5069456;28;20025;-96
2021/08/21 12:50:42;;;;;;;0.10;0.10;;;;;;;30.44;40.13;101773.47;5070874;28;20014;-96
2021/08/21 12:53:09;;;;;;;0.10;0.10;;;;;;;30.40;40.73;101761.94;5067915;28;20033;-96
2021/08/21 12:55:44;;;;;;;0.10;0.10;;;;;;;30.42;41.65;101761.78;5094028;22;20008;-93
2021/08/21 12:58:50;;;;;;;0.00;0.00;;;;;;;30.37;40.19;101751.28;5071300;28;20120;-94
2021/08/21 13:01:36;;;;;;;0.68;0.68;;;;;;;30.07;39.77;101749.44;5066712;23;20058;-96
2021/08/21 13:04:50;;;;;;;0.10;0.10;;;;;;;29.93;40.56;101754.25;5054000;28;20060;-92
2021/08/21 13:07:22;;;;;;;0.98;0.45;;;;;;;29.91;41.92;101753.53;5092388;23;20056;-96